sensor_id;sensor_type;location;lat;lon;timestamp;P1;durP1;ratioP1;P2;durP2;ratioP2
37383;SDS011;23258;49.718;11.082;2024-03-23T00:53:44;8.90;;;7.60;;
37383;SDS011;23258;49.718;11.082;2024-03-23T00:56:10;7.07;;;6.38;;
37383;SDS011;23258;49.718;11.082;2024-03-23T00:58:36;7.68;;;6.88;;
37383;SDS011;23258;49.718;11.082;2024-03-23T01:01:02;8.30;;;6.70;;
37383;SDS011;23258;49.718;11.082;2024-03-23T01:03:28;6.65;;;6.00;;
37383;SDS011;23258;49.718;11.082;2024-03-23T01:05:54;7.15;;;6.45;;
37383;SDS011;23258;49.718;11.082;2024-03-23T01:08:20;7.57;;;6.88;;
37383;SDS011;23258;49.718;11.082;2024-03-23T01:10:56;7.72;;;6.22;;
37383;SDS011;23258;49.718;11.082;2024-03-23T01:13:22;7.45;;;6.38;;
37383;SDS011;23258;49.718;11.082;2024-03-23T01:15:48;9.27;;;5.60;;
37383;SDS011;23258;49.718;11.082;2024-03-23T01:18:14;7.10;;;6.35;;
37383;SDS011;23258;49.718;11.082;2024-03-23T01:20:40;10.18;;;6.35;;
37383;SDS011;23258;49.718;11.082;2024-03-23T01:23:06;7.78;;;6.38;;
37383;SDS011;23258;49.718;11.082;2024-03-23T01:25:32;7.03;;;6.43;;
37383;SDS011;23258;49.718;11.082;2024-03-23T01:28:00;7.05;;;6.35;;
37383;SDS011;23258;49.718;11.082;2024-03-23T01:30:26;8.05;;;7.03;;
37383;SDS011;23258;49.718;11.082;2024-03-23T01:32:52;6.40;;;5.80;;
37383;SDS011;23258;49.718;11.082;2024-03-23T01:35:18;8.65;;;6.53;;
37383;SDS011;23258;49.718;11.082;2024-03-23T01:37:44;6.68;;;6.00;;
37383;SDS011;23258;49.718;11.082;2024-03-23T01:40:11;7.22;;;6.32;;
37383;SDS011;23258;49.718;11.082;2024-03-23T01:42:38;7.18;;;6.57;;
37383;SDS011;23258;49.718;11.082;2024-03-23T01:45:07;6.65;;;5.97;;
37383;SDS011;23258;49.718;11.082;2024-03-23T01:47:33;9.18;;;6.28;;
37383;SDS011;23258;49.718;11.082;2024-03-23T01:49:59;6.88;;;5.70;;
37383;SDS011;23258;49.718;11.082;2024-03-23T01:52:25;6.53;;;5.93;;
37383;SDS011;23258;49.718;11.082;2024-03-23T01:54:51;5.97;;;5.38;;
37383;SDS011;23258;49.718;11.082;2024-03-23T01:57:17;6.10;;;5.53;;
37383;SDS011;23258;49.718;11.082;2024-03-23T01:59:43;6.93;;;5.93;;
37383;SDS011;23258;49.718;11.082;2024-03-23T02:02:12;6.40;;;5.75;;
37383;SDS011;23258;49.718;11.082;2024-03-23T02:04:38;7.22;;;5.65;;
37383;SDS011;23258;49.718;11.082;2024-03-23T02:07:04;6.88;;;6.18;;
37383;SDS011;23258;49.718;11.082;2024-03-23T02:09:32;6.25;;;5.65;;
37383;SDS011;23258;49.718;11.082;2024-03-23T02:11:58;6.35;;;5.78;;
37383;SDS011;23258;49.718;11.082;2024-03-23T02:14:24;6.43;;;5.82;;
37383;SDS011;23258;49.718;11.082;2024-03-23T02:16:50;6.45;;;5.90;;
37383;SDS011;23258;49.718;11.082;2024-03-23T02:19:18;7.13;;;6.00;;
37383;SDS011;23258;49.718;11.082;2024-03-23T02:21:44;6.25;;;5.65;;
37383;SDS011;23258;49.718;11.082;2024-03-23T02:24:13;7.07;;;6.07;;
37383;SDS011;23258;49.718;11.082;2024-03-23T02:26:39;8.68;;;5.63;;
37383;SDS011;23258;49.718;11.082;2024-03-23T02:29:04;6.63;;;6.03;;
37383;SDS011;23258;49.718;11.082;2024-03-23T02:31:30;6.28;;;5.63;;
37383;SDS011;23258;49.718;11.082;2024-03-23T02:33:56;6.97;;;6.40;;
37383;SDS011;23258;49.718;11.082;2024-03-23T02:36:22;5.95;;;5.40;;
37383;SDS011;23258;49.718;11.082;2024-03-23T02:38:48;6.15;;;5.47;;
37383;SDS011;23258;49.718;11.082;2024-03-23T02:41:17;6.38;;;5.75;;
37383;SDS011;23258;49.718;11.082;2024-03-23T02:43:43;6.32;;;5.72;;
37383;SDS011;23258;49.718;11.082;2024-03-23T02:46:09;6.35;;;5.78;;
37383;SDS011;23258;49.718;11.082;2024-03-23T02:48:35;5.93;;;5.32;;
37383;SDS011;23258;49.718;11.082;2024-03-23T02:51:01;7.50;;;5.32;;
37383;SDS011;23258;49.718;11.082;2024-03-23T02:53:27;5.38;;;4.88;;
37383;SDS011;23258;49.718;11.082;2024-03-23T02:55:53;6.80;;;5.32;;
37383;SDS011;23258;49.718;11.082;2024-03-23T02:58:21;5.40;;;4.90;;
37383;SDS011;23258;49.718;11.082;2024-03-23T03:00:47;5.85;;;5.35;;
37383;SDS011;23258;49.718;11.082;2024-03-23T03:03:13;5.65;;;5.15;;
37383;SDS011;23258;49.718;11.082;2024-03-23T03:05:39;6.00;;;5.40;;
37383;SDS011;23258;49.718;11.082;2024-03-23T03:08:05;7.43;;;5.68;;
37383;SDS011;23258;49.718;11.082;2024-03-23T03:10:31;6.35;;;5.70;;
37383;SDS011;23258;49.718;11.082;2024-03-23T03:12:57;6.40;;;5.80;;
37383;SDS011;23258;49.718;11.082;2024-03-23T03:15:26;5.63;;;5.10;;
37383;SDS011;23258;49.718;11.082;2024-03-23T03:17:52;5.50;;;4.95;;
37383;SDS011;23258;49.718;11.082;2024-03-23T03:20:18;7.68;;;5.57;;
37383;SDS011;23258;49.718;11.082;2024-03-23T03:22:44;7.40;;;5.45;;
37383;SDS011;23258;49.718;11.082;2024-03-23T03:25:09;6.07;;;4.80;;
37383;SDS011;23258;49.718;11.082;2024-03-23T03:27:35;6.13;;;5.53;;
37383;SDS011;23258;49.718;11.082;2024-03-23T03:30:01;5.97;;;5.40;;
37383;SDS011;23258;49.718;11.082;2024-03-23T03:32:30;6.47;;;5.07;;
37383;SDS011;23258;49.718;11.082;2024-03-23T03:34:56;6.90;;;5.70;;
37383;SDS011;23258;49.718;11.082;2024-03-23T03:37:22;6.68;;;5.80;;
37383;SDS011;23258;49.718;11.082;2024-03-23T03:39:48;5.50;;;4.95;;
37383;SDS011;23258;49.718;11.082;2024-03-23T03:42:14;6.05;;;5.05;;
37383;SDS011;23258;49.718;11.082;2024-03-23T03:44:40;5.70;;;4.82;;
37383;SDS011;23258;49.718;11.082;2024-03-23T03:47:06;7.78;;;5.38;;
37383;SDS011;23258;49.718;11.082;2024-03-23T03:49:34;5.40;;;4.90;;
37383;SDS011;23258;49.718;11.082;2024-03-23T03:52:01;6.78;;;5.32;;
37383;SDS011;23258;49.718;11.082;2024-03-23T03:54:26;5.40;;;4.90;;
37383;SDS011;23258;49.718;11.082;2024-03-23T03:56:52;5.80;;;5.05;;
37383;SDS011;23258;49.718;11.082;2024-03-23T03:59:18;6.72;;;5.40;;
37383;SDS011;23258;49.718;11.082;2024-03-23T04:01:44;6.88;;;5.57;;
37383;SDS011;23258;49.718;11.082;2024-03-23T04:04:10;6.32;;;5.72;;
37383;SDS011;23258;49.718;11.082;2024-03-23T04:06:39;6.43;;;5.43;;
37383;SDS011;23258;49.718;11.082;2024-03-23T04:09:05;6.55;;;5.30;;
37383;SDS011;23258;49.718;11.082;2024-03-23T04:11:31;6.43;;;5.82;;
37383;SDS011;23258;49.718;11.082;2024-03-23T04:13:57;6.22;;;5.22;;
37383;SDS011;23258;49.718;11.082;2024-03-23T04:16:26;6.10;;;5.50;;
37383;SDS011;23258;49.718;11.082;2024-03-23T04:18:52;7.07;;;5.38;;
37383;SDS011;23258;49.718;11.082;2024-03-23T04:21:18;5.97;;;5.00;;
37383;SDS011;23258;49.718;11.082;2024-03-23T04:23:47;5.97;;;5.47;;
37383;SDS011;23258;49.718;11.082;2024-03-23T04:26:13;7.18;;;6.30;;
37383;SDS011;23258;49.718;11.082;2024-03-23T04:28:39;7.30;;;5.28;;
37383;SDS011;23258;49.718;11.082;2024-03-23T04:31:05;6.72;;;5.25;;
37383;SDS011;23258;49.718;11.082;2024-03-23T04:33:31;6.35;;;5.65;;
37383;SDS011;23258;49.718;11.082;2024-03-23T04:35:57;5.35;;;4.90;;
37383;SDS011;23258;49.718;11.082;2024-03-23T04:38:23;5.78;;;5.28;;
37383;SDS011;23258;49.718;11.082;2024-03-23T04:40:56;7.15;;;6.30;;
37383;SDS011;23258;49.718;11.082;2024-03-23T04:43:22;6.28;;;5.68;;
37383;SDS011;23258;49.718;11.082;2024-03-23T04:45:48;6.13;;;5.50;;
37383;SDS011;23258;49.718;11.082;2024-03-23T04:48:14;5.82;;;5.22;;
37383;SDS011;23258;49.718;11.082;2024-03-23T04:50:39;6.20;;;5.70;;
37383;SDS011;23258;49.718;11.082;2024-03-23T04:53:06;6.68;;;5.75;;
37383;SDS011;23258;49.718;11.082;2024-03-23T04:55:32;6.32;;;5.65;;
37383;SDS011;23258;49.718;11.082;2024-03-23T04:58:00;6.03;;;5.15;;
37383;SDS011;23258;49.718;11.082;2024-03-23T05:00:26;5.82;;;5.32;;
37383;SDS011;23258;49.718;11.082;2024-03-23T05:02:53;7.70;;;5.90;;
37383;SDS011;23258;49.718;11.082;2024-03-23T05:05:19;10.02;;;5.68;;
37383;SDS011;23258;49.718;11.082;2024-03-23T05:07:45;5.65;;;5.15;;
37383;SDS011;23258;49.718;11.082;2024-03-23T05:10:11;6.75;;;5.95;;
37383;SDS011;23258;49.718;11.082;2024-03-23T05:12:37;5.45;;;4.95;;
37383;SDS011;23258;49.718;11.082;2024-03-23T05:15:06;8.55;;;6.15;;
37383;SDS011;23258;49.718;11.082;2024-03-23T05:17:32;5.45;;;5.03;;
37383;SDS011;23258;49.718;11.082;2024-03-23T05:19:57;5.50;;;5.07;;
37383;SDS011;23258;49.718;11.082;2024-03-23T05:22:24;6.45;;;5.63;;
37383;SDS011;23258;49.718;11.082;2024-03-23T05:24:50;6.10;;;5.50;;
37383;SDS011;23258;49.718;11.082;2024-03-23T05:27:16;9.48;;;6.18;;
37383;SDS011;23258;49.718;11.082;2024-03-23T05:29:42;7.55;;;6.50;;
37383;SDS011;23258;49.718;11.082;2024-03-23T05:32:11;8.52;;;6.00;;
37383;SDS011;23258;49.718;11.082;2024-03-23T05:34:36;6.43;;;5.82;;
37383;SDS011;23258;49.718;11.082;2024-03-23T05:37:02;6.13;;;5.63;;
37383;SDS011;23258;49.718;11.082;2024-03-23T05:39:28;8.18;;;5.78;;
37383;SDS011;23258;49.718;11.082;2024-03-23T05:41:54;6.35;;;5.75;;
37383;SDS011;23258;49.718;11.082;2024-03-23T05:44:20;6.88;;;6.22;;
37383;SDS011;23258;49.718;11.082;2024-03-23T05:46:46;7.63;;;5.75;;
37383;SDS011;23258;49.718;11.082;2024-03-23T05:49:15;8.55;;;6.30;;
37383;SDS011;23258;49.718;11.082;2024-03-23T05:51:41;8.30;;;6.03;;
37383;SDS011;23258;49.718;11.082;2024-03-23T05:54:07;7.50;;;6.50;;
37383;SDS011;23258;49.718;11.082;2024-03-23T05:56:33;6.63;;;6.03;;
37383;SDS011;23258;49.718;11.082;2024-03-23T05:58:59;7.30;;;6.57;;
37383;SDS011;23258;49.718;11.082;2024-03-23T06:01:25;6.65;;;6.05;;
37383;SDS011;23258;49.718;11.082;2024-03-23T06:03:50;6.90;;;5.50;;
37383;SDS011;23258;49.718;11.082;2024-03-23T06:06:19;5.85;;;5.15;;
37383;SDS011;23258;49.718;11.082;2024-03-23T06:08:45;6.47;;;5.70;;
37383;SDS011;23258;49.718;11.082;2024-03-23T06:11:11;6.85;;;6.00;;
37383;SDS011;23258;49.718;11.082;2024-03-23T06:13:37;6.00;;;5.43;;
37383;SDS011;23258;49.718;11.082;2024-03-23T06:16:03;6.68;;;5.93;;
37383;SDS011;23258;49.718;11.082;2024-03-23T06:18:29;9.63;;;5.95;;
37383;SDS011;23258;49.718;11.082;2024-03-23T06:20:55;5.93;;;5.43;;
37383;SDS011;23258;49.718;11.082;2024-03-23T06:23:23;6.55;;;5.68;;
37383;SDS011;23258;49.718;11.082;2024-03-23T06:25:49;5.85;;;5.43;;
37383;SDS011;23258;49.718;11.082;2024-03-23T06:28:15;7.03;;;5.63;;
37383;SDS011;23258;49.718;11.082;2024-03-23T06:30:41;6.95;;;5.90;;
37383;SDS011;23258;49.718;11.082;2024-03-23T06:33:08;6.85;;;5.25;;
37383;SDS011;23258;49.718;11.082;2024-03-23T06:35:34;5.50;;;5.10;;
37383;SDS011;23258;49.718;11.082;2024-03-23T06:38:00;6.50;;;5.90;;
37383;SDS011;23258;49.718;11.082;2024-03-23T06:40:28;5.75;;;5.03;;
37383;SDS011;23258;49.718;11.082;2024-03-23T06:42:54;5.72;;;5.22;;
37383;SDS011;23258;49.718;11.082;2024-03-23T06:45:20;6.07;;;5.20;;
37383;SDS011;23258;49.718;11.082;2024-03-23T06:47:46;7.03;;;5.57;;
37383;SDS011;23258;49.718;11.082;2024-03-23T06:50:12;5.93;;;5.40;;
37383;SDS011;23258;49.718;11.082;2024-03-23T06:52:38;5.35;;;4.85;;
37383;SDS011;23258;49.718;11.082;2024-03-23T06:55:04;5.85;;;5.35;;
37383;SDS011;23258;49.718;11.082;2024-03-23T06:57:33;5.97;;;5.38;;
37383;SDS011;23258;49.718;11.082;2024-03-23T06:59:58;5.85;;;5.45;;
37383;SDS011;23258;49.718;11.082;2024-03-23T07:02:24;6.15;;;4.93;;
37383;SDS011;23258;49.718;11.082;2024-03-23T07:04:50;5.68;;;5.20;;
37383;SDS011;23258;49.718;11.082;2024-03-23T07:07:16;5.90;;;5.40;;
37383;SDS011;23258;49.718;11.082;2024-03-23T07:09:42;5.78;;;5.25;;
37383;SDS011;23258;49.718;11.082;2024-03-23T07:12:08;5.72;;;5.22;;
37383;SDS011;23258;49.718;11.082;2024-03-23T07:14:36;6.30;;;5.53;;
37383;SDS011;23258;49.718;11.082;2024-03-23T07:17:02;8.98;;;5.93;;
37383;SDS011;23258;49.718;11.082;2024-03-23T07:19:28;9.10;;;5.60;;
37383;SDS011;23258;49.718;11.082;2024-03-23T07:21:54;5.93;;;5.38;;
37383;SDS011;23258;49.718;11.082;2024-03-23T07:24:20;5.55;;;5.05;;
37383;SDS011;23258;49.718;11.082;2024-03-23T07:26:46;8.70;;;6.32;;
37383;SDS011;23258;49.718;11.082;2024-03-23T07:29:12;8.23;;;6.47;;
37383;SDS011;23258;49.718;11.082;2024-03-23T07:31:40;5.72;;;5.22;;
37383;SDS011;23258;49.718;11.082;2024-03-23T07:34:06;7.47;;;6.68;;
37383;SDS011;23258;49.718;11.082;2024-03-23T07:36:32;7.25;;;6.47;;
37383;SDS011;23258;49.718;11.082;2024-03-23T07:38:58;8.35;;;6.10;;
37383;SDS011;23258;49.718;11.082;2024-03-23T07:41:24;7.60;;;6.22;;
37383;SDS011;23258;49.718;11.082;2024-03-23T07:43:50;7.07;;;5.88;;
37383;SDS011;23258;49.718;11.082;2024-03-23T07:46:16;8.77;;;5.80;;
37383;SDS011;23258;49.718;11.082;2024-03-23T07:48:45;5.55;;;5.05;;
37383;SDS011;23258;49.718;11.082;2024-03-23T07:51:11;6.13;;;5.28;;
37383;SDS011;23258;49.718;11.082;2024-03-23T07:53:37;7.43;;;5.10;;
37383;SDS011;23258;49.718;11.082;2024-03-23T07:56:05;5.53;;;4.65;;
37383;SDS011;23258;49.718;11.082;2024-03-23T07:58:31;4.82;;;4.38;;
37383;SDS011;23258;49.718;11.082;2024-03-23T08:01:03;4.88;;;4.10;;
37383;SDS011;23258;49.718;11.082;2024-03-23T08:03:29;4.97;;;4.45;;
37383;SDS011;23258;49.718;11.082;2024-03-23T08:05:58;4.25;;;3.70;;
37383;SDS011;23258;49.718;11.082;2024-03-23T08:08:32;4.00;;;3.70;;
37383;SDS011;23258;49.718;11.082;2024-03-23T08:10:58;3.58;;;3.28;;
37383;SDS011;23258;49.718;11.082;2024-03-23T08:13:24;4.47;;;3.05;;
37383;SDS011;23258;49.718;11.082;2024-03-23T08:15:50;3.30;;;3.00;;
37383;SDS011;23258;49.718;11.082;2024-03-23T08:18:16;4.93;;;3.63;;
37383;SDS011;23258;49.718;11.082;2024-03-23T08:20:41;3.42;;;3.13;;
37383;SDS011;23258;49.718;11.082;2024-03-23T08:23:10;2.47;;;2.25;;
37383;SDS011;23258;49.718;11.082;2024-03-23T08:25:36;3.38;;;2.80;;
37383;SDS011;23258;49.718;11.082;2024-03-23T08:28:02;2.67;;;2.47;;
37383;SDS011;23258;49.718;11.082;2024-03-23T08:30:28;3.72;;;3.17;;
37383;SDS011;23258;49.718;11.082;2024-03-23T08:32:54;4.28;;;3.25;;
37383;SDS011;23258;49.718;11.082;2024-03-23T08:35:20;4.13;;;2.97;;
37383;SDS011;23258;49.718;11.082;2024-03-23T08:37:46;4.35;;;3.30;;
37383;SDS011;23258;49.718;11.082;2024-03-23T08:40:14;3.58;;;3.28;;
37383;SDS011;23258;49.718;11.082;2024-03-23T08:42:40;3.08;;;2.88;;
37383;SDS011;23258;49.718;11.082;2024-03-23T08:45:06;2.88;;;2.60;;
37383;SDS011;23258;49.718;11.082;2024-03-23T08:47:34;2.88;;;2.65;;
37383;SDS011;23258;49.718;11.082;2024-03-23T08:50:00;3.70;;;2.92;;
37383;SDS011;23258;49.718;11.082;2024-03-23T08:52:26;2.50;;;2.40;;
37383;SDS011;23258;49.718;11.082;2024-03-23T08:54:52;4.25;;;3.53;;
37383;SDS011;23258;49.718;11.082;2024-03-23T08:57:21;2.30;;;2.15;;
37383;SDS011;23258;49.718;11.082;2024-03-23T08:59:47;2.78;;;2.58;;
37383;SDS011;23258;49.718;11.082;2024-03-23T09:02:13;2.03;;;1.92;;
37383;SDS011;23258;49.718;11.082;2024-03-23T09:04:39;1.50;;;1.40;;
37383;SDS011;23258;49.718;11.082;2024-03-23T09:07:05;1.13;;;1.13;;
37383;SDS011;23258;49.718;11.082;2024-03-23T09:09:31;1.17;;;1.13;;
37383;SDS011;23258;49.718;11.082;2024-03-23T09:11:57;2.13;;;1.92;;
37383;SDS011;23258;49.718;11.082;2024-03-23T09:14:25;1.77;;;1.67;;
37383;SDS011;23258;49.718;11.082;2024-03-23T09:16:51;1.30;;;1.20;;
37383;SDS011;23258;49.718;11.082;2024-03-23T09:19:17;0.75;;;0.75;;
37383;SDS011;23258;49.718;11.082;2024-03-23T09:21:43;0.82;;;0.82;;
37383;SDS011;23258;49.718;11.082;2024-03-23T09:24:09;0.85;;;0.85;;
37383;SDS011;23258;49.718;11.082;2024-03-23T09:26:35;1.50;;;1.40;;
37383;SDS011;23258;49.718;11.082;2024-03-23T09:29:01;0.70;;;0.70;;
37383;SDS011;23258;49.718;11.082;2024-03-23T09:31:29;2.05;;;1.90;;
37383;SDS011;23258;49.718;11.082;2024-03-23T09:33:55;1.73;;;1.63;;
37383;SDS011;23258;49.718;11.082;2024-03-23T09:36:21;0.60;;;0.60;;
37383;SDS011;23258;49.718;11.082;2024-03-23T09:38:47;0.75;;;0.75;;
37383;SDS011;23258;49.718;11.082;2024-03-23T09:41:13;0.70;;;0.70;;
37383;SDS011;23258;49.718;11.082;2024-03-23T09:43:39;0.50;;;0.50;;
37383;SDS011;23258;49.718;11.082;2024-03-23T09:46:05;2.50;;;1.15;;
37383;SDS011;23258;49.718;11.082;2024-03-23T09:48:34;1.52;;;1.42;;
37383;SDS011;23258;49.718;11.082;2024-03-23T09:50:59;1.08;;;0.73;;
37383;SDS011;23258;49.718;11.082;2024-03-23T09:53:25;0.88;;;0.88;;
37383;SDS011;23258;49.718;11.082;2024-03-23T09:55:52;0.82;;;0.82;;
37383;SDS011;23258;49.718;11.082;2024-03-23T09:58:18;0.95;;;0.70;;
37383;SDS011;23258;49.718;11.082;2024-03-23T10:00:44;1.55;;;0.80;;
37383;SDS011;23258;49.718;11.082;2024-03-23T10:03:10;2.30;;;0.73;;
37383;SDS011;23258;49.718;11.082;2024-03-23T10:05:39;0.70;;;0.70;;
37383;SDS011;23258;49.718;11.082;2024-03-23T10:08:16;0.68;;;0.63;;
37383;SDS011;23258;49.718;11.082;2024-03-23T10:10:43;0.63;;;0.63;;
37383;SDS011;23258;49.718;11.082;2024-03-23T10:13:09;2.20;;;1.00;;
37383;SDS011;23258;49.718;11.082;2024-03-23T10:15:35;1.10;;;0.95;;
37383;SDS011;23258;49.718;11.082;2024-03-23T10:18:02;1.23;;;1.20;;
37383;SDS011;23258;49.718;11.082;2024-03-23T10:20:30;1.00;;;1.00;;
37383;SDS011;23258;49.718;11.082;2024-03-23T10:22:59;0.90;;;0.90;;
37383;SDS011;23258;49.718;11.082;2024-03-23T10:25:24;0.77;;;0.77;;
37383;SDS011;23258;49.718;11.082;2024-03-23T10:27:58;0.82;;;0.70;;
37383;SDS011;23258;49.718;11.082;2024-03-23T10:30:24;1.15;;;1.15;;
37383;SDS011;23258;49.718;11.082;2024-03-23T10:32:50;0.93;;;0.93;;
37383;SDS011;23258;49.718;11.082;2024-03-23T10:35:17;1.40;;;1.30;;
37383;SDS011;23258;49.718;11.082;2024-03-23T10:37:44;2.05;;;1.40;;
37383;SDS011;23258;49.718;11.082;2024-03-23T10:40:14;1.15;;;1.15;;
37383;SDS011;23258;49.718;11.082;2024-03-23T10:42:40;0.85;;;0.85;;
37383;SDS011;23258;49.718;11.082;2024-03-23T10:45:07;1.35;;;1.30;;
37383;SDS011;23258;49.718;11.082;2024-03-23T10:47:34;1.38;;;1.27;;
37383;SDS011;23258;49.718;11.082;2024-03-23T10:50:00;1.05;;;1.05;;
37383;SDS011;23258;49.718;11.082;2024-03-23T10:52:26;2.30;;;1.02;;
37383;SDS011;23258;49.718;11.082;2024-03-23T10:54:52;1.73;;;1.50;;
37383;SDS011;23258;49.718;11.082;2024-03-23T10:57:21;1.73;;;1.50;;
37383;SDS011;23258;49.718;11.082;2024-03-23T10:59:48;1.50;;;1.40;;
37383;SDS011;23258;49.718;11.082;2024-03-23T11:02:18;2.25;;;2.03;;
37383;SDS011;23258;49.718;11.082;2024-03-23T11:04:44;2.28;;;1.58;;
37383;SDS011;23258;49.718;11.082;2024-03-23T11:09:51;2.88;;;1.55;;
37383;SDS011;23258;49.718;11.082;2024-03-23T11:12:17;1.80;;;1.70;;
37383;SDS011;23258;49.718;11.082;2024-03-23T11:14:53;2.28;;;1.13;;
37383;SDS011;23258;49.718;11.082;2024-03-23T11:17:20;1.67;;;1.58;;
37383;SDS011;23258;49.718;11.082;2024-03-23T11:19:52;2.45;;;1.70;;
37383;SDS011;23258;49.718;11.082;2024-03-23T11:24:59;1.70;;;1.60;;
37383;SDS011;23258;49.718;11.082;2024-03-23T11:27:25;1.95;;;1.40;;
37383;SDS011;23258;49.718;11.082;2024-03-23T11:29:54;4.35;;;1.88;;
37383;SDS011;23258;49.718;11.082;2024-03-23T11:32:20;1.52;;;1.42;;
37383;SDS011;23258;49.718;11.082;2024-03-23T11:34:46;1.77;;;1.58;;
37383;SDS011;23258;49.718;11.082;2024-03-23T11:37:12;2.13;;;1.92;;
37383;SDS011;23258;49.718;11.082;2024-03-23T11:39:38;2.70;;;2.03;;
37383;SDS011;23258;49.718;11.082;2024-03-23T11:42:04;1.58;;;1.48;;
37383;SDS011;23258;49.718;11.082;2024-03-23T11:44:30;3.17;;;2.03;;
37383;SDS011;23258;49.718;11.082;2024-03-23T11:47:08;1.35;;;1.33;;
37383;SDS011;23258;49.718;11.082;2024-03-23T11:49:34;2.80;;;1.20;;
37383;SDS011;23258;49.718;11.082;2024-03-23T11:52:00;1.85;;;1.75;;
37383;SDS011;23258;49.718;11.082;2024-03-23T11:54:26;1.80;;;1.50;;
37383;SDS011;23258;49.718;11.082;2024-03-23T11:56:56;1.85;;;1.67;;
37383;SDS011;23258;49.718;11.082;2024-03-23T11:59:32;2.97;;;1.63;;
37383;SDS011;23258;49.718;11.082;2024-03-23T12:01:58;1.90;;;1.67;;
37383;SDS011;23258;49.718;11.082;2024-03-23T12:04:30;5.13;;;2.70;;
37383;SDS011;23258;49.718;11.082;2024-03-23T12:09:37;4.68;;;2.10;;
37383;SDS011;23258;49.718;11.082;2024-03-23T12:12:05;2.45;;;2.28;;
37383;SDS011;23258;49.718;11.082;2024-03-23T12:14:31;2.75;;;1.98;;
37383;SDS011;23258;49.718;11.082;2024-03-23T12:17:06;1.60;;;1.50;;
37383;SDS011;23258;49.718;11.082;2024-03-23T12:19:35;3.85;;;1.80;;
37383;SDS011;23258;49.718;11.082;2024-03-23T12:22:02;3.20;;;2.03;;
37383;SDS011;23258;49.718;11.082;2024-03-23T12:24:28;1.90;;;1.73;;
37383;SDS011;23258;49.718;11.082;2024-03-23T12:26:54;2.00;;;1.65;;
37383;SDS011;23258;49.718;11.082;2024-03-23T12:29:20;2.25;;;2.05;;
37383;SDS011;23258;49.718;11.082;2024-03-23T12:31:46;2.47;;;1.70;;
37383;SDS011;23258;49.718;11.082;2024-03-23T12:34:12;2.33;;;1.77;;
37383;SDS011;23258;49.718;11.082;2024-03-23T12:36:40;1.90;;;1.58;;
37383;SDS011;23258;49.718;11.082;2024-03-23T12:39:06;4.38;;;1.88;;
37383;SDS011;23258;49.718;11.082;2024-03-23T12:41:32;2.75;;;1.75;;
37383;SDS011;23258;49.718;11.082;2024-03-23T12:43:58;2.97;;;1.85;;
37383;SDS011;23258;49.718;11.082;2024-03-23T12:46:24;2.33;;;2.08;;
37383;SDS011;23258;49.718;11.082;2024-03-23T12:48:50;3.22;;;2.17;;
37383;SDS011;23258;49.718;11.082;2024-03-23T12:51:16;2.20;;;1.83;;
37383;SDS011;23258;49.718;11.082;2024-03-23T12:53:44;2.28;;;2.15;;
37383;SDS011;23258;49.718;11.082;2024-03-23T12:56:11;2.15;;;1.90;;
37383;SDS011;23258;49.718;11.082;2024-03-23T12:58:37;4.38;;;2.08;;
37383;SDS011;23258;49.718;11.082;2024-03-23T13:01:03;2.45;;;2.00;;
37383;SDS011;23258;49.718;11.082;2024-03-23T13:03:29;2.92;;;1.83;;
37383;SDS011;23258;49.718;11.082;2024-03-23T13:05:55;2.05;;;1.83;;
37383;SDS011;23258;49.718;11.082;2024-03-23T13:08:21;1.60;;;1.50;;
37383;SDS011;23258;49.718;11.082;2024-03-23T13:10:51;2.28;;;2.08;;
37383;SDS011;23258;49.718;11.082;2024-03-23T13:13:17;1.88;;;1.77;;
37383;SDS011;23258;49.718;11.082;2024-03-23T13:15:42;2.28;;;1.77;;
37383;SDS011;23258;49.718;11.082;2024-03-23T13:18:14;3.10;;;2.03;;
37383;SDS011;23258;49.718;11.082;2024-03-23T13:20:40;2.25;;;1.90;;
37383;SDS011;23258;49.718;11.082;2024-03-23T13:23:06;3.45;;;2.30;;
37383;SDS011;23258;49.718;11.082;2024-03-23T13:25:32;1.73;;;1.60;;
37383;SDS011;23258;49.718;11.082;2024-03-23T13:28:01;4.50;;;2.20;;
37383;SDS011;23258;49.718;11.082;2024-03-23T13:30:27;4.45;;;2.30;;
37383;SDS011;23258;49.718;11.082;2024-03-23T13:32:53;2.45;;;1.92;;
37383;SDS011;23258;49.718;11.082;2024-03-23T13:35:19;1.80;;;1.70;;
37383;SDS011;23258;49.718;11.082;2024-03-23T13:37:45;2.35;;;1.88;;
37383;SDS011;23258;49.718;11.082;2024-03-23T13:40:11;2.17;;;1.73;;
37383;SDS011;23258;49.718;11.082;2024-03-23T13:42:37;2.35;;;1.70;;
37383;SDS011;23258;49.718;11.082;2024-03-23T13:45:06;3.10;;;2.50;;
37383;SDS011;23258;49.718;11.082;2024-03-23T13:47:32;1.92;;;1.60;;
37383;SDS011;23258;49.718;11.082;2024-03-23T13:49:58;3.58;;;1.58;;
37383;SDS011;23258;49.718;11.082;2024-03-23T13:52:24;2.85;;;2.08;;
37383;SDS011;23258;49.718;11.082;2024-03-23T13:54:50;4.78;;;1.77;;
37383;SDS011;23258;49.718;11.082;2024-03-23T13:57:16;4.82;;;1.75;;
37383;SDS011;23258;49.718;11.082;2024-03-23T13:59:41;1.92;;;1.60;;
37383;SDS011;23258;49.718;11.082;2024-03-23T14:02:10;2.05;;;1.92;;
37383;SDS011;23258;49.718;11.082;2024-03-23T14:04:36;1.65;;;1.38;;
37383;SDS011;23258;49.718;11.082;2024-03-23T14:07:02;3.03;;;1.60;;
37383;SDS011;23258;49.718;11.082;2024-03-23T14:09:28;1.98;;;1.77;;
37383;SDS011;23258;49.718;11.082;2024-03-23T14:11:54;5.50;;;2.40;;
37383;SDS011;23258;49.718;11.082;2024-03-23T14:14:20;2.92;;;1.30;;
37383;SDS011;23258;49.718;11.082;2024-03-23T14:16:46;3.33;;;1.88;;
37383;SDS011;23258;49.718;11.082;2024-03-23T14:19:14;2.67;;;2.22;;
37383;SDS011;23258;49.718;11.082;2024-03-23T14:21:40;2.13;;;1.90;;
37383;SDS011;23258;49.718;11.082;2024-03-23T14:24:06;2.03;;;1.80;;
37383;SDS011;23258;49.718;11.082;2024-03-23T14:26:33;1.98;;;1.73;;
37383;SDS011;23258;49.718;11.082;2024-03-23T14:28:59;2.53;;;1.83;;
37383;SDS011;23258;49.718;11.082;2024-03-23T14:31:24;1.85;;;1.67;;
37383;SDS011;23258;49.718;11.082;2024-03-23T14:33:50;1.33;;;1.23;;
37383;SDS011;23258;49.718;11.082;2024-03-23T14:36:19;2.13;;;1.85;;
37383;SDS011;23258;49.718;11.082;2024-03-23T14:38:47;1.58;;;1.20;;
37383;SDS011;23258;49.718;11.082;2024-03-23T14:41:13;3.35;;;1.83;;
37383;SDS011;23258;49.718;11.082;2024-03-23T14:43:38;4.45;;;1.60;;
37383;SDS011;23258;49.718;11.082;2024-03-23T14:46:08;1.50;;;1.40;;
37383;SDS011;23258;49.718;11.082;2024-03-23T14:48:34;2.47;;;2.13;;
37383;SDS011;23258;49.718;11.082;2024-03-23T14:51:00;1.70;;;1.60;;
37383;SDS011;23258;49.718;11.082;2024-03-23T14:53:29;1.60;;;1.50;;
37383;SDS011;23258;49.718;11.082;2024-03-23T14:55:55;2.45;;;1.50;;
37383;SDS011;23258;49.718;11.082;2024-03-23T14:58:21;2.75;;;1.67;;
37383;SDS011;23258;49.718;11.082;2024-03-23T15:00:47;1.73;;;1.63;;
37383;SDS011;23258;49.718;11.082;2024-03-23T15:03:13;2.25;;;2.00;;
37383;SDS011;23258;49.718;11.082;2024-03-23T15:05:39;3.60;;;1.48;;
37383;SDS011;23258;49.718;11.082;2024-03-23T15:08:05;2.10;;;1.35;;
37383;SDS011;23258;49.718;11.082;2024-03-23T15:10:35;2.55;;;1.83;;
37383;SDS011;23258;49.718;11.082;2024-03-23T15:13:01;1.92;;;1.58;;
37383;SDS011;23258;49.718;11.082;2024-03-23T15:15:27;2.25;;;1.80;;
37383;SDS011;23258;49.718;11.082;2024-03-23T15:17:53;3.67;;;2.35;;
37383;SDS011;23258;49.718;11.082;2024-03-23T15:20:19;2.00;;;1.77;;
37383;SDS011;23258;49.718;11.082;2024-03-23T15:22:45;3.90;;;2.05;;
37383;SDS011;23258;49.718;11.082;2024-03-23T15:25:11;2.55;;;1.92;;
37383;SDS011;23258;49.718;11.082;2024-03-23T15:27:39;2.28;;;1.58;;
37383;SDS011;23258;49.718;11.082;2024-03-23T15:30:06;3.50;;;1.80;;